sensor_id;sensor_type;location;lat;lon;timestamp;P1;durP1;ratioP1;P2;durP2;ratioP2
20142;SDS011;10509;46.476;7.134;2023-05-07T00:01:58;1.37;;;1.23;;
20142;SDS011;10509;46.476;7.134;2023-05-07T00:04:24;2.13;;;1.40;;
20142;SDS011;10509;46.476;7.134;2023-05-07T00:06:50;2.93;;;1.30;;
20142;SDS011;10509;46.476;7.134;2023-05-07T00:09:16;2.23;;;1.20;;
20142;SDS011;10509;46.476;7.134;2023-05-07T00:11:42;1.80;;;1.40;;
20142;SDS011;10509;46.476;7.134;2023-05-07T00:14:08;4.00;;;1.20;;
20142;SDS011;10509;46.476;7.134;2023-05-07T00:16:34;2.80;;;1.50;;
20142;SDS011;10509;46.476;7.134;2023-05-07T00:19:00;4.13;;;1.50;;
20142;SDS011;10509;46.476;7.134;2023-05-07T00:21:26;3.37;;;1.40;;
20142;SDS011;10509;46.476;7.134;2023-05-07T00:23:53;1.40;;;1.30;;
20142;SDS011;10509;46.476;7.134;2023-05-07T00:26:19;2.40;;;1.30;;
20142;SDS011;10509;46.476;7.134;2023-05-07T00:28:45;2.07;;;1.20;;
20142;SDS011;10509;46.476;7.134;2023-05-07T00:31:11;1.40;;;1.30;;
20142;SDS011;10509;46.476;7.134;2023-05-07T00:33:38;2.37;;;1.50;;
20142;SDS011;10509;46.476;7.134;2023-05-07T00:36:04;1.77;;;1.30;;
20142;SDS011;10509;46.476;7.134;2023-05-07T00:38:30;2.00;;;1.40;;
20142;SDS011;10509;46.476;7.134;2023-05-07T00:40:56;1.50;;;1.40;;
20142;SDS011;10509;46.476;7.134;2023-05-07T00:43:22;2.80;;;1.60;;
20142;SDS011;10509;46.476;7.134;2023-05-07T00:45:48;1.60;;;1.10;;
20142;SDS011;10509;46.476;7.134;2023-05-07T00:48:15;3.53;;;1.30;;
20142;SDS011;10509;46.476;7.134;2023-05-07T00:50:41;3.00;;;1.40;;
20142;SDS011;10509;46.476;7.134;2023-05-07T00:53:07;2.40;;;1.43;;
20142;SDS011;10509;46.476;7.134;2023-05-07T00:55:34;1.57;;;1.47;;
20142;SDS011;10509;46.476;7.134;2023-05-07T00:58:01;2.50;;;1.40;;
20142;SDS011;10509;46.476;7.134;2023-05-07T01:00:27;12.13;;;2.93;;
20142;SDS011;10509;46.476;7.134;2023-05-07T01:02:53;3.87;;;1.67;;
20142;SDS011;10509;46.476;7.134;2023-05-07T01:05:20;1.87;;;1.40;;
20142;SDS011;10509;46.476;7.134;2023-05-07T01:07:48;2.33;;;1.50;;
20142;SDS011;10509;46.476;7.134;2023-05-07T01:10:15;1.40;;;1.30;;
20142;SDS011;10509;46.476;7.134;2023-05-07T01:12:41;1.83;;;1.20;;
20142;SDS011;10509;46.476;7.134;2023-05-07T01:15:08;2.50;;;1.20;;
20142;SDS011;10509;46.476;7.134;2023-05-07T01:17:35;2.23;;;1.40;;
20142;SDS011;10509;46.476;7.134;2023-05-07T01:20:01;2.20;;;1.27;;
20142;SDS011;10509;46.476;7.134;2023-05-07T01:22:32;2.20;;;1.40;;
20142;SDS011;10509;46.476;7.134;2023-05-07T01:24:58;2.13;;;1.30;;
20142;SDS011;10509;46.476;7.134;2023-05-07T01:27:26;2.60;;;1.30;;
20142;SDS011;10509;46.476;7.134;2023-05-07T01:29:52;3.57;;;1.37;;
20142;SDS011;10509;46.476;7.134;2023-05-07T01:32:25;2.13;;;1.30;;
20142;SDS011;10509;46.476;7.134;2023-05-07T01:34:53;1.57;;;1.20;;
20142;SDS011;10509;46.476;7.134;2023-05-07T01:37:20;2.47;;;1.13;;
20142;SDS011;10509;46.476;7.134;2023-05-07T01:39:46;1.47;;;1.00;;
20142;SDS011;10509;46.476;7.134;2023-05-07T01:42:12;2.53;;;1.40;;
20142;SDS011;10509;46.476;7.134;2023-05-07T01:44:38;3.13;;;1.30;;
20142;SDS011;10509;46.476;7.134;2023-05-07T01:47:04;1.53;;;1.30;;
20142;SDS011;10509;46.476;7.134;2023-05-07T01:49:30;3.40;;;1.40;;
20142;SDS011;10509;46.476;7.134;2023-05-07T01:51:57;1.77;;;1.50;;
20142;SDS011;10509;46.476;7.134;2023-05-07T01:54:26;1.87;;;1.43;;
20142;SDS011;10509;46.476;7.134;2023-05-07T01:56:53;1.53;;;1.43;;
20142;SDS011;10509;46.476;7.134;2023-05-07T01:59:19;2.87;;;1.90;;
20142;SDS011;10509;46.476;7.134;2023-05-07T02:01:45;1.70;;;1.60;;
20142;SDS011;10509;46.476;7.134;2023-05-07T02:04:12;2.67;;;1.50;;
20142;SDS011;10509;46.476;7.134;2023-05-07T02:06:38;2.83;;;1.60;;
20142;SDS011;10509;46.476;7.134;2023-05-07T02:09:04;2.40;;;1.33;;
20142;SDS011;10509;46.476;7.134;2023-05-07T02:11:30;1.50;;;1.30;;
20142;SDS011;10509;46.476;7.134;2023-05-07T02:13:56;1.83;;;1.50;;
20142;SDS011;10509;46.476;7.134;2023-05-07T02:16:22;4.37;;;1.67;;
20142;SDS011;10509;46.476;7.134;2023-05-07T02:18:49;1.70;;;1.40;;
20142;SDS011;10509;46.476;7.134;2023-05-07T02:21:15;1.87;;;1.60;;
20142;SDS011;10509;46.476;7.134;2023-05-07T02:23:41;3.43;;;1.47;;
20142;SDS011;10509;46.476;7.134;2023-05-07T02:26:07;1.93;;;1.30;;
20142;SDS011;10509;46.476;7.134;2023-05-07T02:28:33;1.77;;;1.20;;
20142;SDS011;10509;46.476;7.134;2023-05-07T02:31:02;2.00;;;1.80;;
20142;SDS011;10509;46.476;7.134;2023-05-07T02:33:28;2.37;;;1.60;;
20142;SDS011;10509;46.476;7.134;2023-05-07T02:35:54;2.60;;;1.77;;
20142;SDS011;10509;46.476;7.134;2023-05-07T02:38:20;2.27;;;1.60;;
20142;SDS011;10509;46.476;7.134;2023-05-07T02:40:46;3.53;;;1.80;;
20142;SDS011;10509;46.476;7.134;2023-05-07T02:43:12;2.13;;;1.50;;
20142;SDS011;10509;46.476;7.134;2023-05-07T02:45:38;2.37;;;1.50;;
20142;SDS011;10509;46.476;7.134;2023-05-07T02:48:04;4.80;;;1.97;;
20142;SDS011;10509;46.476;7.134;2023-05-07T02:50:31;1.50;;;1.40;;
20142;SDS011;10509;46.476;7.134;2023-05-07T02:52:57;1.80;;;1.60;;
20142;SDS011;10509;46.476;7.134;2023-05-07T02:55:24;3.23;;;1.67;;
20142;SDS011;10509;46.476;7.134;2023-05-07T02:57:50;1.80;;;1.70;;
20142;SDS011;10509;46.476;7.134;2023-05-07T03:00:19;3.90;;;1.40;;
20142;SDS011;10509;46.476;7.134;2023-05-07T03:02:45;3.67;;;1.60;;
20142;SDS011;10509;46.476;7.134;2023-05-07T03:05:11;2.00;;;1.30;;
20142;SDS011;10509;46.476;7.134;2023-05-07T03:07:37;4.03;;;1.53;;
20142;SDS011;10509;46.476;7.134;2023-05-07T03:10:04;1.50;;;1.40;;
20142;SDS011;10509;46.476;7.134;2023-05-07T03:12:30;1.40;;;1.30;;
20142;SDS011;10509;46.476;7.134;2023-05-07T03:14:56;1.57;;;1.47;;
20142;SDS011;10509;46.476;7.134;2023-05-07T03:17:22;2.20;;;1.30;;
20142;SDS011;10509;46.476;7.134;2023-05-07T03:19:48;2.20;;;1.50;;
20142;SDS011;10509;46.476;7.134;2023-05-07T03:22:14;2.30;;;1.53;;
20142;SDS011;10509;46.476;7.134;2023-05-07T03:24:40;1.60;;;1.40;;
20142;SDS011;10509;46.476;7.134;2023-05-07T03:27:06;2.47;;;1.80;;
20142;SDS011;10509;46.476;7.134;2023-05-07T03:29:32;2.10;;;1.90;;
20142;SDS011;10509;46.476;7.134;2023-05-07T03:31:58;1.63;;;1.33;;
20142;SDS011;10509;46.476;7.134;2023-05-07T03:34:25;2.30;;;1.50;;
20142;SDS011;10509;46.476;7.134;2023-05-07T03:36:51;3.63;;;1.73;;
20142;SDS011;10509;46.476;7.134;2023-05-07T03:39:17;2.40;;;1.20;;
20142;SDS011;10509;46.476;7.134;2023-05-07T03:41:43;2.13;;;1.83;;
20142;SDS011;10509;46.476;7.134;2023-05-07T03:44:09;1.90;;;1.30;;
20142;SDS011;10509;46.476;7.134;2023-05-07T03:46:35;3.53;;;1.60;;
20142;SDS011;10509;46.476;7.134;2023-05-07T03:49:01;1.47;;;1.20;;
20142;SDS011;10509;46.476;7.134;2023-05-07T03:51:27;1.90;;;1.40;;
20142;SDS011;10509;46.476;7.134;2023-05-07T03:53:53;1.50;;;1.37;;
20142;SDS011;10509;46.476;7.134;2023-05-07T03:56:19;3.97;;;1.80;;
20142;SDS011;10509;46.476;7.134;2023-05-07T03:58:46;3.03;;;1.50;;
20142;SDS011;10509;46.476;7.134;2023-05-07T04:01:13;2.07;;;1.60;;
20142;SDS011;10509;46.476;7.134;2023-05-07T04:03:39;2.63;;;1.50;;
20142;SDS011;10509;46.476;7.134;2023-05-07T04:06:05;2.10;;;1.80;;
20142;SDS011;10509;46.476;7.134;2023-05-07T04:08:31;1.70;;;1.60;;
20142;SDS011;10509;46.476;7.134;2023-05-07T04:10:58;1.60;;;1.50;;
20142;SDS011;10509;46.476;7.134;2023-05-07T04:13:24;5.50;;;1.67;;
20142;SDS011;10509;46.476;7.134;2023-05-07T04:15:54;3.93;;;1.60;;
20142;SDS011;10509;46.476;7.134;2023-05-07T04:18:21;1.87;;;1.50;;
20142;SDS011;10509;46.476;7.134;2023-05-07T04:20:47;2.47;;;1.23;;
20142;SDS011;10509;46.476;7.134;2023-05-07T04:23:14;2.30;;;1.30;;
20142;SDS011;10509;46.476;7.134;2023-05-07T04:25:40;4.00;;;1.53;;
20142;SDS011;10509;46.476;7.134;2023-05-07T04:28:06;2.73;;;1.30;;
20142;SDS011;10509;46.476;7.134;2023-05-07T04:30:32;1.93;;;1.40;;
20142;SDS011;10509;46.476;7.134;2023-05-07T04:32:58;1.67;;;1.40;;
20142;SDS011;10509;46.476;7.134;2023-05-07T04:35:25;1.17;;;1.07;;
20142;SDS011;10509;46.476;7.134;2023-05-07T04:37:51;5.67;;;2.00;;
20142;SDS011;10509;46.476;7.134;2023-05-07T04:40:17;3.23;;;1.40;;
20142;SDS011;10509;46.476;7.134;2023-05-07T04:42:43;2.73;;;1.40;;
20142;SDS011;10509;46.476;7.134;2023-05-07T04:45:09;2.57;;;1.50;;
20142;SDS011;10509;46.476;7.134;2023-05-07T04:47:35;1.87;;;1.70;;
20142;SDS011;10509;46.476;7.134;2023-05-07T04:50:01;5.40;;;1.50;;
20142;SDS011;10509;46.476;7.134;2023-05-07T04:52:27;2.13;;;1.50;;
20142;SDS011;10509;46.476;7.134;2023-05-07T04:54:53;2.70;;;1.33;;
20142;SDS011;10509;46.476;7.134;2023-05-07T04:57:19;4.47;;;1.80;;
20142;SDS011;10509;46.476;7.134;2023-05-07T04:59:45;2.37;;;1.43;;
20142;SDS011;10509;46.476;7.134;2023-05-07T05:02:11;2.90;;;1.70;;
20142;SDS011;10509;46.476;7.134;2023-05-07T05:04:37;8.90;;;2.30;;
20142;SDS011;10509;46.476;7.134;2023-05-07T05:07:03;4.83;;;1.60;;
20142;SDS011;10509;46.476;7.134;2023-05-07T05:09:30;4.13;;;1.53;;
20142;SDS011;10509;46.476;7.134;2023-05-07T05:11:56;2.30;;;1.40;;
20142;SDS011;10509;46.476;7.134;2023-05-07T05:14:22;2.67;;;1.60;;
20142;SDS011;10509;46.476;7.134;2023-05-07T05:16:48;3.13;;;1.60;;
20142;SDS011;10509;46.476;7.134;2023-05-07T05:19:14;2.50;;;1.60;;
20142;SDS011;10509;46.476;7.134;2023-05-07T05:21:40;2.07;;;1.53;;
20142;SDS011;10509;46.476;7.134;2023-05-07T05:24:06;5.80;;;1.70;;
20142;SDS011;10509;46.476;7.134;2023-05-07T05:26:32;3.33;;;1.80;;
20142;SDS011;10509;46.476;7.134;2023-05-07T05:28:58;4.87;;;1.53;;
20142;SDS011;10509;46.476;7.134;2023-05-07T05:31:24;1.67;;;1.20;;
20142;SDS011;10509;46.476;7.134;2023-05-07T05:33:50;2.63;;;1.50;;
20142;SDS011;10509;46.476;7.134;2023-05-07T05:36:16;2.73;;;1.80;;
20142;SDS011;10509;46.476;7.134;2023-05-07T05:38:42;2.33;;;1.40;;
20142;SDS011;10509;46.476;7.134;2023-05-07T05:41:09;2.53;;;1.30;;
20142;SDS011;10509;46.476;7.134;2023-05-07T05:43:35;3.20;;;1.60;;
20142;SDS011;10509;46.476;7.134;2023-05-07T05:46:02;1.80;;;1.27;;
20142;SDS011;10509;46.476;7.134;2023-05-07T05:48:29;3.80;;;1.70;;
20142;SDS011;10509;46.476;7.134;2023-05-07T05:50:55;4.97;;;1.87;;
20142;SDS011;10509;46.476;7.134;2023-05-07T05:53:21;1.60;;;1.43;;
20142;SDS011;10509;46.476;7.134;2023-05-07T05:55:47;2.70;;;1.53;;
20142;SDS011;10509;46.476;7.134;2023-05-07T05:58:13;1.70;;;1.60;;
20142;SDS011;10509;46.476;7.134;2023-05-07T06:00:40;2.10;;;1.87;;
20142;SDS011;10509;46.476;7.134;2023-05-07T06:03:06;1.63;;;1.53;;
20142;SDS011;10509;46.476;7.134;2023-05-07T06:05:32;2.33;;;2.03;;
20142;SDS011;10509;46.476;7.134;2023-05-07T06:07:58;2.00;;;1.73;;
20142;SDS011;10509;46.476;7.134;2023-05-07T06:10:24;2.63;;;1.70;;
20142;SDS011;10509;46.476;7.134;2023-05-07T06:12:52;2.03;;;1.80;;
20142;SDS011;10509;46.476;7.134;2023-05-07T06:15:18;2.23;;;1.57;;
20142;SDS011;10509;46.476;7.134;2023-05-07T06:17:44;2.13;;;1.73;;
20142;SDS011;10509;46.476;7.134;2023-05-07T06:20:10;3.53;;;1.77;;
20142;SDS011;10509;46.476;7.134;2023-05-07T06:22:36;3.17;;;1.60;;
20142;SDS011;10509;46.476;7.134;2023-05-07T06:25:02;2.63;;;1.43;;
20142;SDS011;10509;46.476;7.134;2023-05-07T06:27:28;2.37;;;1.80;;
20142;SDS011;10509;46.476;7.134;2023-05-07T06:29:54;4.40;;;1.83;;
20142;SDS011;10509;46.476;7.134;2023-05-07T06:32:20;2.30;;;2.10;;
20142;SDS011;10509;46.476;7.134;2023-05-07T06:34:46;2.00;;;1.73;;
20142;SDS011;10509;46.476;7.134;2023-05-07T06:37:12;2.60;;;1.60;;
20142;SDS011;10509;46.476;7.134;2023-05-07T06:39:38;3.17;;;1.90;;
20142;SDS011;10509;46.476;7.134;2023-05-07T06:42:04;2.30;;;1.80;;
20142;SDS011;10509;46.476;7.134;2023-05-07T06:44:31;2.43;;;1.63;;
20142;SDS011;10509;46.476;7.134;2023-05-07T06:46:57;2.80;;;1.90;;
20142;SDS011;10509;46.476;7.134;2023-05-07T06:49:23;2.07;;;1.60;;
20142;SDS011;10509;46.476;7.134;2023-05-07T06:51:49;2.33;;;2.07;;
20142;SDS011;10509;46.476;7.134;2023-05-07T06:54:15;2.93;;;2.10;;
20142;SDS011;10509;46.476;7.134;2023-05-07T06:56:41;2.17;;;1.47;;
20142;SDS011;10509;46.476;7.134;2023-05-07T06:59:07;1.90;;;1.40;;
20142;SDS011;10509;46.476;7.134;2023-05-07T07:01:33;2.27;;;2.07;;
20142;SDS011;10509;46.476;7.134;2023-05-07T07:03:59;2.03;;;1.70;;
20142;SDS011;10509;46.476;7.134;2023-05-07T07:06:25;2.07;;;1.60;;
20142;SDS011;10509;46.476;7.134;2023-05-07T07:08:52;2.33;;;1.90;;
20142;SDS011;10509;46.476;7.134;2023-05-07T07:11:18;1.93;;;1.73;;
20142;SDS011;10509;46.476;7.134;2023-05-07T07:13:44;3.83;;;2.17;;
20142;SDS011;10509;46.476;7.134;2023-05-07T07:16:10;2.23;;;1.90;;
20142;SDS011;10509;46.476;7.134;2023-05-07T07:18:36;1.87;;;1.40;;
20142;SDS011;10509;46.476;7.134;2023-05-07T07:21:02;1.70;;;1.60;;
20142;SDS011;10509;46.476;7.134;2023-05-07T07:23:28;1.73;;;1.60;;
20142;SDS011;10509;46.476;7.134;2023-05-07T07:25:54;3.63;;;1.47;;
20142;SDS011;10509;46.476;7.134;2023-05-07T07:28:20;1.30;;;1.10;;
20142;SDS011;10509;46.476;7.134;2023-05-07T07:30:47;3.00;;;1.50;;
20142;SDS011;10509;46.476;7.134;2023-05-07T07:33:13;2.20;;;1.30;;
20142;SDS011;10509;46.476;7.134;2023-05-07T07:35:39;1.13;;;1.03;;
20142;SDS011;10509;46.476;7.134;2023-05-07T07:38:05;1.67;;;1.07;;
20142;SDS011;10509;46.476;7.134;2023-05-07T07:40:31;1.40;;;1.27;;
20142;SDS011;10509;46.476;7.134;2023-05-07T07:42:57;1.83;;;1.00;;
20142;SDS011;10509;46.476;7.134;2023-05-07T07:45:24;1.10;;;0.90;;
20142;SDS011;10509;46.476;7.134;2023-05-07T07:47:50;2.87;;;1.10;;
20142;SDS011;10509;46.476;7.134;2023-05-07T07:50:16;1.57;;;0.87;;
20142;SDS011;10509;46.476;7.134;2023-05-07T07:52:42;0.83;;;0.80;;
20142;SDS011;10509;46.476;7.134;2023-05-07T07:55:08;1.27;;;0.97;;
20142;SDS011;10509;46.476;7.134;2023-05-07T07:57:34;1.50;;;0.83;;
20142;SDS011;10509;46.476;7.134;2023-05-07T08:00:01;1.50;;;1.00;;
20142;SDS011;10509;46.476;7.134;2023-05-07T08:02:27;2.27;;;1.20;;
20142;SDS011;10509;46.476;7.134;2023-05-07T08:04:53;2.73;;;1.00;;
20142;SDS011;10509;46.476;7.134;2023-05-07T08:07:19;1.47;;;1.10;;
20142;SDS011;10509;46.476;7.134;2023-05-07T08:09:47;1.67;;;1.10;;
20142;SDS011;10509;46.476;7.134;2023-05-07T08:12:14;1.63;;;0.80;;
20142;SDS011;10509;46.476;7.134;2023-05-07T08:14:40;2.13;;;1.20;;
20142;SDS011;10509;46.476;7.134;2023-05-07T08:17:06;1.83;;;1.00;;
20142;SDS011;10509;46.476;7.134;2023-05-07T08:19:34;2.00;;;1.30;;
20142;SDS011;10509;46.476;7.134;2023-05-07T08:22:00;2.57;;;1.17;;
20142;SDS011;10509;46.476;7.134;2023-05-07T08:24:26;1.70;;;1.00;;
20142;SDS011;10509;46.476;7.134;2023-05-07T08:26:52;2.07;;;0.97;;
20142;SDS011;10509;46.476;7.134;2023-05-07T08:29:18;2.17;;;1.00;;
20142;SDS011;10509;46.476;7.134;2023-05-07T08:31:44;2.00;;;0.87;;
20142;SDS011;10509;46.476;7.134;2023-05-07T08:34:10;2.77;;;0.90;;
20142;SDS011;10509;46.476;7.134;2023-05-07T08:36:36;1.33;;;0.80;;
20142;SDS011;10509;46.476;7.134;2023-05-07T08:39:03;1.73;;;0.77;;
20142;SDS011;10509;46.476;7.134;2023-05-07T08:41:29;1.23;;;1.00;;
20142;SDS011;10509;46.476;7.134;2023-05-07T08:43:55;1.43;;;0.93;;
20142;SDS011;10509;46.476;7.134;2023-05-07T08:46:24;2.33;;;1.00;;
20142;SDS011;10509;46.476;7.134;2023-05-07T08:48:51;2.00;;;0.80;;
20142;SDS011;10509;46.476;7.134;2023-05-07T08:51:18;1.80;;;0.90;;
20142;SDS011;10509;46.476;7.134;2023-05-07T08:53:44;0.97;;;0.80;;
20142;SDS011;10509;46.476;7.134;2023-05-07T08:56:10;1.10;;;0.90;;
20142;SDS011;10509;46.476;7.134;2023-05-07T08:58:37;1.73;;;0.77;;
20142;SDS011;10509;46.476;7.134;2023-05-07T09:01:05;1.90;;;0.90;;
20142;SDS011;10509;46.476;7.134;2023-05-07T09:03:32;2.40;;;0.80;;
20142;SDS011;10509;46.476;7.134;2023-05-07T09:05:58;1.20;;;0.80;;
20142;SDS011;10509;46.476;7.134;2023-05-07T09:08:25;1.00;;;0.80;;
20142;SDS011;10509;46.476;7.134;2023-05-07T09:10:52;1.80;;;0.87;;
20142;SDS011;10509;46.476;7.134;2023-05-07T09:13:18;1.30;;;0.70;;
20142;SDS011;10509;46.476;7.134;2023-05-07T09:15:44;0.70;;;0.70;;
20142;SDS011;10509;46.476;7.134;2023-05-07T09:18:11;1.17;;;0.80;;
20142;SDS011;10509;46.476;7.134;2023-05-07T09:20:38;1.97;;;0.90;;
20142;SDS011;10509;46.476;7.134;2023-05-07T09:23:04;2.00;;;0.70;;
20142;SDS011;10509;46.476;7.134;2023-05-07T09:25:31;1.37;;;0.83;;
20142;SDS011;10509;46.476;7.134;2023-05-07T09:27:58;1.03;;;0.70;;
20142;SDS011;10509;46.476;7.134;2023-05-07T09:30:27;1.50;;;0.60;;
20142;SDS011;10509;46.476;7.134;2023-05-07T09:32:53;0.97;;;0.70;;
20142;SDS011;10509;46.476;7.134;2023-05-07T09:35:19;1.67;;;0.67;;
20142;SDS011;10509;46.476;7.134;2023-05-07T09:37:52;1.70;;;0.70;;
20142;SDS011;10509;46.476;7.134;2023-05-07T09:40:22;1.90;;;0.60;;
20142;SDS011;10509;46.476;7.134;2023-05-07T09:42:48;2.80;;;0.70;;
20142;SDS011;10509;46.476;7.134;2023-05-07T09:45:15;1.43;;;1.20;;
20142;SDS011;10509;46.476;7.134;2023-05-07T09:47:42;1.67;;;0.90;;
20142;SDS011;10509;46.476;7.134;2023-05-07T09:50:12;2.00;;;0.90;;
20142;SDS011;10509;46.476;7.134;2023-05-07T09:52:39;2.07;;;0.70;;
20142;SDS011;10509;46.476;7.134;2023-05-07T09:55:06;1.50;;;0.80;;
20142;SDS011;10509;46.476;7.134;2023-05-07T09:57:33;1.40;;;0.83;;
20142;SDS011;10509;46.476;7.134;2023-05-07T10:00:01;2.50;;;0.95;;
20142;SDS011;10509;46.476;7.134;2023-05-07T10:02:29;1.83;;;1.38;;
20142;SDS011;10509;46.476;7.134;2023-05-07T10:04:56;2.55;;;1.00;;
20142;SDS011;10509;46.476;7.134;2023-05-07T10:07:25;1.95;;;1.08;;
20142;SDS011;10509;46.476;7.134;2023-05-07T10:09:51;3.27;;;0.97;;
20142;SDS011;10509;46.476;7.134;2023-05-07T10:12:17;2.87;;;1.20;;
20142;SDS011;10509;46.476;7.134;2023-05-07T10:14:45;2.83;;;1.10;;
20142;SDS011;10509;46.476;7.134;2023-05-07T10:17:11;1.60;;;1.03;;
20142;SDS011;10509;46.476;7.134;2023-05-07T10:19:37;2.33;;;0.93;;
20142;SDS011;10509;46.476;7.134;2023-05-07T10:22:04;1.70;;;1.13;;
20142;SDS011;10509;46.476;7.134;2023-05-07T10:24:34;1.50;;;1.00;;
20142;SDS011;10509;46.476;7.134;2023-05-07T10:27:02;3.70;;;1.10;;
20142;SDS011;10509;46.476;7.134;2023-05-07T10:29:33;1.17;;;1.00;;
20142;SDS011;10509;46.476;7.134;2023-05-07T10:34:35;3.53;;;1.20;;
20142;SDS011;10509;46.476;7.134;2023-05-07T10:37:02;2.63;;;1.00;;
20142;SDS011;10509;46.476;7.134;2023-05-07T10:39:28;2.33;;;1.08;;
20142;SDS011;10509;46.476;7.134;2023-05-07T10:41:55;2.15;;;1.00;;
20142;SDS011;10509;46.476;7.134;2023-05-07T10:44:25;2.85;;;1.17;;
20142;SDS011;10509;46.476;7.134;2023-05-07T10:47:05;2.17;;;1.23;;
20142;SDS011;10509;46.476;7.134;2023-05-07T10:49:32;3.33;;;1.17;;
20142;SDS011;10509;46.476;7.134;2023-05-07T10:52:31;1.90;;;0.98;;
20142;SDS011;10509;46.476;7.134;2023-05-07T10:55:37;3.28;;;1.15;;
20142;SDS011;10509;46.476;7.134;2023-05-07T10:57:47;2.25;;;1.20;;
20142;SDS011;10509;46.476;7.134;2023-05-07T11:05:24;2.47;;;1.48;;
20142;SDS011;10509;46.476;7.134;2023-05-07T11:07:56;2.10;;;1.20;;
20142;SDS011;10509;46.476;7.134;2023-05-07T11:10:22;2.70;;;1.40;;
20142;SDS011;10509;46.476;7.134;2023-05-07T11:15:14;2.27;;;1.20;;
20142;SDS011;10509;46.476;7.134;2023-05-07T11:17:56;3.07;;;1.20;;
20142;SDS011;10509;46.476;7.134;2023-05-07T11:23:08;2.50;;;1.20;;
20142;SDS011;10509;46.476;7.134;2023-05-07T11:25:34;3.10;;;1.07;;
20142;SDS011;10509;46.476;7.134;2023-05-07T11:28:04;2.27;;;1.10;;
20142;SDS011;10509;46.476;7.134;2023-05-07T11:30:30;4.87;;;1.10;;
20142;SDS011;10509;46.476;7.134;2023-05-07T11:32:57;2.80;;;1.17;;
20142;SDS011;10509;46.476;7.134;2023-05-07T11:35:23;1.63;;;1.08;;
20142;SDS011;10509;46.476;7.134;2023-05-07T11:37:49;1.97;;;1.40;;
20142;SDS011;10509;46.476;7.134;2023-05-07T11:40:16;1.97;;;1.20;;
20142;SDS011;10509;46.476;7.134;2023-05-07T11:42:42;2.90;;;1.30;;
20142;SDS011;10509;46.476;7.134;2023-05-07T11:45:08;2.27;;;1.30;;
20142;SDS011;10509;46.476;7.134;2023-05-07T11:47:35;1.93;;;1.47;;
20142;SDS011;10509;46.476;7.134;2023-05-07T11:50:04;2.73;;;1.23;;
20142;SDS011;10509;46.476;7.134;2023-05-07T11:52:31;1.27;;;1.17;;
20142;SDS011;10509;46.476;7.134;2023-05-07T11:54:58;2.67;;;1.07;;
20142;SDS011;10509;46.476;7.134;2023-05-07T11:57:25;2.85;;;1.10;;
20142;SDS011;10509;46.476;7.134;2023-05-07T11:59:54;3.80;;;1.00;;
20142;SDS011;10509;46.476;7.134;2023-05-07T12:02:21;1.60;;;1.13;;
20142;SDS011;10509;46.476;7.134;2023-05-07T12:04:47;2.13;;;1.30;;
20142;SDS011;10509;46.476;7.134;2023-05-07T12:07:13;1.37;;;1.10;;
20142;SDS011;10509;46.476;7.134;2023-05-07T12:09:40;1.63;;;1.27;;
20142;SDS011;10509;46.476;7.134;2023-05-07T12:12:06;2.50;;;1.30;;
20142;SDS011;10509;46.476;7.134;2023-05-07T12:14:32;1.80;;;1.30;;
20142;SDS011;10509;46.476;7.134;2023-05-07T12:16:59;2.77;;;1.50;;
20142;SDS011;10509;46.476;7.134;2023-05-07T12:19:28;1.37;;;1.20;;
20142;SDS011;10509;46.476;7.134;2023-05-07T12:21:54;3.27;;;1.40;;
20142;SDS011;10509;46.476;7.134;2023-05-07T12:24:21;2.20;;;1.33;;
20142;SDS011;10509;46.476;7.134;2023-05-07T12:26:47;2.17;;;1.40;;
20142;SDS011;10509;46.476;7.134;2023-05-07T12:29:14;1.93;;;1.33;;
20142;SDS011;10509;46.476;7.134;2023-05-07T12:31:43;1.47;;;1.30;;
20142;SDS011;10509;46.476;7.134;2023-05-07T12:34:12;1.67;;;1.43;;
20142;SDS011;10509;46.476;7.134;2023-05-07T12:36:38;1.60;;;1.40;;
20142;SDS011;10509;46.476;7.134;2023-05-07T12:39:05;1.67;;;1.30;;
20142;SDS011;10509;46.476;7.134;2023-05-07T12:41:35;1.30;;;1.00;;
20142;SDS011;10509;46.476;7.134;2023-05-07T12:44:03;1.60;;;1.30;;
20142;SDS011;10509;46.476;7.134;2023-05-07T12:46:30;1.37;;;1.27;;
20142;SDS011;10509;46.476;7.134;2023-05-07T12:48:56;3.40;;;1.30;;
20142;SDS011;10509;46.476;7.134;2023-05-07T12:51:22;1.10;;;1.00;;
20142;SDS011;10509;46.476;7.134;2023-05-07T12:53:48;1.47;;;1.13;;
20142;SDS011;10509;46.476;7.134;2023-05-07T12:56:15;1.00;;;0.90;;
20142;SDS011;10509;46.476;7.134;2023-05-07T12:58:41;1.63;;;0.80;;
20142;SDS011;10509;46.476;7.134;2023-05-07T13:01:07;1.90;;;0.93;;
20142;SDS011;10509;46.476;7.134;2023-05-07T13:03:35;1.13;;;0.90;;
20142;SDS011;10509;46.476;7.134;2023-05-07T13:06:05;2.10;;;1.10;;
20142;SDS011;10509;46.476;7.134;2023-05-07T13:11:01;1.63;;;0.90;;
20142;SDS011;10509;46.476;7.134;2023-05-07T13:13:31;1.50;;;0.90;;
20142;SDS011;10509;46.476;7.134;2023-05-07T13:15:57;1.30;;;0.90;;
20142;SDS011;10509;46.476;7.134;2023-05-07T13:18:24;0.93;;;0.77;;
20142;SDS011;10509;46.476;7.134;2023-05-07T13:20:50;2.70;;;0.87;;
20142;SDS011;10509;46.476;7.134;2023-05-07T13:23:17;1.47;;;1.10;;
20142;SDS011;10509;46.476;7.134;2023-05-07T13:25:43;1.80;;;1.00;;
20142;SDS011;10509;46.476;7.134;2023-05-07T13:28:09;1.67;;;1.10;;
20142;SDS011;10509;46.476;7.134;2023-05-07T13:30:35;1.00;;;0.80;;
20142;SDS011;10509;46.476;7.134;2023-05-07T13:33:01;2.53;;;1.03;;
20142;SDS011;10509;46.476;7.134;2023-05-07T13:35:27;1.50;;;0.80;;
20142;SDS011;10509;46.476;7.134;2023-05-07T13:37:53;1.07;;;0.87;;
20142;SDS011;10509;46.476;7.134;2023-05-07T13:40:21;2.50;;;0.70;;
20142;SDS011;10509;46.476;7.134;2023-05-07T13:42:47;1.53;;;0.80;;
20142;SDS011;10509;46.476;7.134;2023-05-07T13:45:13;2.63;;;0.80;;
20142;SDS011;10509;46.476;7.134;2023-05-07T13:47:40;1.77;;;0.87;;
20142;SDS011;10509;46.476;7.134;2023-05-07T13:50:06;1.73;;;0.70;;
20142;SDS011;10509;46.476;7.134;2023-05-07T13:52:33;1.63;;;0.90;;
20142;SDS011;10509;46.476;7.134;2023-05-07T13:54:59;1.73;;;0.80;;
20142;SDS011;10509;46.476;7.134;2023-05-07T13:57:25;3.80;;;0.73;;
20142;SDS011;10509;46.476;7.134;2023-05-07T13:59:51;1.47;;;0.80;;
20142;SDS011;10509;46.476;7.134;2023-05-07T14:02:17;1.93;;;0.70;;
20142;SDS011;10509;46.476;7.134;2023-05-07T14:04:43;1.63;;;0.70;;
20142;SDS011;10509;46.476;7.134;2023-05-07T14:07:10;1.77;;;0.90;;
20142;SDS011;10509;46.476;7.134;2023-05-07T14:09:36;0.97;;;0.80;;
20142;SDS011;10509;46.476;7.134;2023-05-07T14:12:02;1.40;;;0.70;;
20142;SDS011;10509;46.476;7.134;2023-05-07T14:14:28;1.80;;;0.80;;
20142;SDS011;10509;46.476;7.134;2023-05-07T14:16:54;1.57;;;0.80;;
20142;SDS011;10509;46.476;7.134;2023-05-07T14:19:20;2.60;;;0.80;;
20142;SDS011;10509;46.476;7.134;2023-05-07T14:21:47;1.50;;;0.70;;
20142;SDS011;10509;46.476;7.134;2023-05-07T14:24:13;1.20;;;0.70;;
20142;SDS011;10509;46.476;7.134;2023-05-07T14:26:39;1.30;;;0.60;;
20142;SDS011;10509;46.476;7.134;2023-05-07T14:29:05;0.63;;;0.60;;
20142;SDS011;10509;46.476;7.134;2023-05-07T14:31:31;0.90;;;0.60;;
20142;SDS011;10509;46.476;7.134;2023-05-07T14:33:58;1.77;;;0.60;;
20142;SDS011;10509;46.476;7.134;2023-05-07T14:36:24;1.17;;;0.70;;
20142;SDS011;10509;46.476;7.134;2023-05-07T14:38:51;0.70;;;0.67;;
20142;SDS011;10509;46.476;7.134;2023-05-07T14:41:19;1.97;;;0.70;;
20142;SDS011;10509;46.476;7.134;2023-05-07T14:43:46;1.10;;;0.63;;
20142;SDS011;10509;46.476;7.134;2023-05-07T14:46:15;2.37;;;0.80;;
20142;SDS011;10509;46.476;7.134;2023-05-07T14:48:42;0.87;;;0.60;;
20142;SDS011;10509;46.476;7.134;2023-05-07T14:51:09;0.93;;;0.70;;
20142;SDS011;10509;46.476;7.134;2023-05-07T14:53:35;2.60;;;0.80;;
20142;SDS011;10509;46.476;7.134;2023-05-07T14:56:01;1.10;;;0.80;;
20142;SDS011;10509;46.476;7.134;2023-05-07T14:58:27;1.17;;;0.70;;
20142;SDS011;10509;46.476;7.134;2023-05-07T15:00:53;1.10;;;0.90;;